sensor_id;sensor_type;location;lat;lon;timestamp;P1;durP1;ratioP1;P2;durP2;ratioP2
77802;SDS011;66993;48.256;16.422;2023-04-24T00:02:47;8.2;;;5.2;;
77802;SDS011;66993;48.256;16.422;2023-04-24T00:07:48;6.2;;;4.6;;
77802;SDS011;66993;48.256;16.422;2023-04-24T00:12:49;8.3;;;5.2;;
77802;SDS011;66993;48.256;16.422;2023-04-24T00:17:51;8.0;;;5.2;;
77802;SDS011;66993;48.256;16.422;2023-04-24T00:22:52;8.5;;;5.4;;
77802;SDS011;66993;48.256;16.422;2023-04-24T00:27:53;7.2;;;5.4;;
77802;SDS011;66993;48.256;16.422;2023-04-24T00:32:55;8.3;;;5.3;;
77802;SDS011;66993;48.256;16.422;2023-04-24T00:37:56;7.8;;;5.5;;
77802;SDS011;66993;48.256;16.422;2023-04-24T00:42:57;7.6;;;5.8;;
77802;SDS011;66993;48.256;16.422;2023-04-24T00:47:58;8.0;;;5.8;;
77802;SDS011;66993;48.256;16.422;2023-04-24T00:53:00;9.3;;;6.0;;
77802;SDS011;66993;48.256;16.422;2023-04-24T00:58:01;8.2;;;5.7;;
77802;SDS011;66993;48.256;16.422;2023-04-24T01:03:03;9.5;;;6.1;;
77802;SDS011;66993;48.256;16.422;2023-04-24T01:08:04;10.6;;;6.8;;
77802;SDS011;66993;48.256;16.422;2023-04-24T01:13:05;9.1;;;6.9;;
77802;SDS011;66993;48.256;16.422;2023-04-24T01:18:06;9.9;;;6.3;;
77802;SDS011;66993;48.256;16.422;2023-04-24T01:23:07;10.0;;;7.1;;
77802;SDS011;66993;48.256;16.422;2023-04-24T01:28:09;11.6;;;7.6;;
77802;SDS011;66993;48.256;16.422;2023-04-24T01:33:10;9.9;;;7.0;;
77802;SDS011;66993;48.256;16.422;2023-04-24T01:38:11;11.8;;;7.2;;
77802;SDS011;66993;48.256;16.422;2023-04-24T01:43:12;9.6;;;7.1;;
77802;SDS011;66993;48.256;16.422;2023-04-24T01:48:14;9.6;;;6.9;;
77802;SDS011;66993;48.256;16.422;2023-04-24T01:53:15;10.6;;;7.4;;
77802;SDS011;66993;48.256;16.422;2023-04-24T01:58:16;10.9;;;8.6;;
77802;SDS011;66993;48.256;16.422;2023-04-24T02:03:17;12.8;;;8.3;;
77802;SDS011;66993;48.256;16.422;2023-04-24T02:08:19;12.5;;;8.5;;
77802;SDS011;66993;48.256;16.422;2023-04-24T02:13:20;10.6;;;7.8;;
77802;SDS011;66993;48.256;16.422;2023-04-24T02:18:21;14.2;;;9.0;;
77802;SDS011;66993;48.256;16.422;2023-04-24T02:23:23;16.1;;;10.2;;
77802;SDS011;66993;48.256;16.422;2023-04-24T02:28:24;15.4;;;9.8;;
77802;SDS011;66993;48.256;16.422;2023-04-24T02:33:25;11.7;;;7.9;;
77802;SDS011;66993;48.256;16.422;2023-04-24T02:38:27;10.6;;;6.5;;
77802;SDS011;66993;48.256;16.422;2023-04-24T02:43:28;10.2;;;6.0;;
77802;SDS011;66993;48.256;16.422;2023-04-24T02:48:29;8.3;;;6.4;;
77802;SDS011;66993;48.256;16.422;2023-04-24T02:53:30;8.5;;;5.9;;
77802;SDS011;66993;48.256;16.422;2023-04-24T02:58:32;9.5;;;6.1;;
77802;SDS011;66993;48.256;16.422;2023-04-24T03:03:33;7.6;;;5.5;;
77802;SDS011;66993;48.256;16.422;2023-04-24T03:08:34;8.8;;;5.7;;
77802;SDS011;66993;48.256;16.422;2023-04-24T03:13:36;8.7;;;5.5;;
77802;SDS011;66993;48.256;16.422;2023-04-24T03:18:37;8.3;;;5.2;;
77802;SDS011;66993;48.256;16.422;2023-04-24T03:23:38;6.9;;;4.8;;
77802;SDS011;66993;48.256;16.422;2023-04-24T03:28:39;6.7;;;4.6;;
77802;SDS011;66993;48.256;16.422;2023-04-24T03:33:41;7.1;;;4.5;;
77802;SDS011;66993;48.256;16.422;2023-04-24T03:38:42;8.0;;;5.1;;
77802;SDS011;66993;48.256;16.422;2023-04-24T03:43:43;7.4;;;5.0;;
77802;SDS011;66993;48.256;16.422;2023-04-24T03:48:44;7.8;;;5.5;;
77802;SDS011;66993;48.256;16.422;2023-04-24T03:53:46;7.0;;;4.7;;
77802;SDS011;66993;48.256;16.422;2023-04-24T03:58:47;8.5;;;5.0;;
77802;SDS011;66993;48.256;16.422;2023-04-24T04:03:48;7.6;;;5.5;;
77802;SDS011;66993;48.256;16.422;2023-04-24T04:08:49;7.2;;;5.0;;
77802;SDS011;66993;48.256;16.422;2023-04-24T04:13:51;10.7;;;5.0;;
77802;SDS011;66993;48.256;16.422;2023-04-24T04:18:52;6.2;;;4.0;;
77802;SDS011;66993;48.256;16.422;2023-04-24T04:23:53;7.6;;;4.5;;
77802;SDS011;66993;48.256;16.422;2023-04-24T04:28:54;6.4;;;4.2;;
77802;SDS011;66993;48.256;16.422;2023-04-24T04:33:56;6.7;;;4.1;;
77802;SDS011;66993;48.256;16.422;2023-04-24T04:38:57;7.1;;;4.2;;
77802;SDS011;66993;48.256;16.422;2023-04-24T04:43:59;5.8;;;3.4;;
77802;SDS011;66993;48.256;16.422;2023-04-24T04:48:59;5.6;;;3.5;;
77802;SDS011;66993;48.256;16.422;2023-04-24T04:54:01;5.1;;;3.9;;
77802;SDS011;66993;48.256;16.422;2023-04-24T04:59:02;6.1;;;3.8;;
77802;SDS011;66993;48.256;16.422;2023-04-24T05:04:04;4.6;;;3.3;;
77802;SDS011;66993;48.256;16.422;2023-04-24T05:09:05;5.1;;;3.3;;
77802;SDS011;66993;48.256;16.422;2023-04-24T05:14:06;4.4;;;3.0;;
77802;SDS011;66993;48.256;16.422;2023-04-24T05:19:07;4.2;;;3.1;;
77802;SDS011;66993;48.256;16.422;2023-04-24T05:24:09;3.8;;;2.9;;
77802;SDS011;66993;48.256;16.422;2023-04-24T05:29:10;4.6;;;2.6;;
77802;SDS011;66993;48.256;16.422;2023-04-24T05:34:12;4.1;;;2.5;;
77802;SDS011;66993;48.256;16.422;2023-04-24T05:39:13;4.1;;;2.5;;
77802;SDS011;66993;48.256;16.422;2023-04-24T05:44:14;3.3;;;2.4;;
77802;SDS011;66993;48.256;16.422;2023-04-24T05:49:15;4.9;;;2.6;;
77802;SDS011;66993;48.256;16.422;2023-04-24T05:54:16;5.1;;;2.6;;
77802;SDS011;66993;48.256;16.422;2023-04-24T05:59:18;3.7;;;2.1;;
77802;SDS011;66993;48.256;16.422;2023-04-24T06:04:19;3.7;;;2.1;;
77802;SDS011;66993;48.256;16.422;2023-04-24T06:09:20;4.6;;;2.7;;
77802;SDS011;66993;48.256;16.422;2023-04-24T06:14:22;3.8;;;2.5;;
77802;SDS011;66993;48.256;16.422;2023-04-24T06:19:23;4.1;;;2.3;;
77802;SDS011;66993;48.256;16.422;2023-04-24T06:24:27;3.3;;;2.0;;
77802;SDS011;66993;48.256;16.422;2023-04-24T06:29:25;4.7;;;2.1;;
77802;SDS011;66993;48.256;16.422;2023-04-24T06:34:27;3.5;;;2.3;;
77802;SDS011;66993;48.256;16.422;2023-04-24T06:39:28;4.5;;;2.4;;
77802;SDS011;66993;48.256;16.422;2023-04-24T06:44:29;3.7;;;2.3;;
77802;SDS011;66993;48.256;16.422;2023-04-24T06:49:30;4.3;;;2.3;;
77802;SDS011;66993;48.256;16.422;2023-04-24T06:54:32;3.4;;;2.3;;
77802;SDS011;66993;48.256;16.422;2023-04-24T06:59:33;3.6;;;2.6;;
77802;SDS011;66993;48.256;16.422;2023-04-24T07:04:35;4.3;;;2.6;;
77802;SDS011;66993;48.256;16.422;2023-04-24T07:09:35;4.2;;;2.7;;
77802;SDS011;66993;48.256;16.422;2023-04-24T07:14:37;3.1;;;2.1;;
77802;SDS011;66993;48.256;16.422;2023-04-24T07:19:38;4.4;;;2.3;;
77802;SDS011;66993;48.256;16.422;2023-04-24T07:24:39;3.3;;;2.5;;
77802;SDS011;66993;48.256;16.422;2023-04-24T07:29:40;4.2;;;2.5;;
77802;SDS011;66993;48.256;16.422;2023-04-24T07:34:42;4.1;;;2.6;;
77802;SDS011;66993;48.256;16.422;2023-04-24T07:39:43;5.0;;;2.6;;
77802;SDS011;66993;48.256;16.422;2023-04-24T07:44:44;3.5;;;2.3;;
77802;SDS011;66993;48.256;16.422;2023-04-24T07:49:46;3.6;;;2.6;;
77802;SDS011;66993;48.256;16.422;2023-04-24T07:54:47;4.3;;;3.0;;
77802;SDS011;66993;48.256;16.422;2023-04-24T07:59:48;4.4;;;2.8;;
77802;SDS011;66993;48.256;16.422;2023-04-24T08:04:50;4.6;;;2.3;;
77802;SDS011;66993;48.256;16.422;2023-04-24T08:09:51;6.4;;;2.5;;
77802;SDS011;66993;48.256;16.422;2023-04-24T08:14:52;3.2;;;2.5;;
77802;SDS011;66993;48.256;16.422;2023-04-24T08:19:53;4.9;;;2.3;;
77802;SDS011;66993;48.256;16.422;2023-04-24T08:24:55;3.6;;;2.2;;
77802;SDS011;66993;48.256;16.422;2023-04-24T08:29:56;3.7;;;2.2;;
77802;SDS011;66993;48.256;16.422;2023-04-24T08:34:57;4.6;;;2.5;;
77802;SDS011;66993;48.256;16.422;2023-04-24T08:39:58;3.8;;;2.8;;
77802;SDS011;66993;48.256;16.422;2023-04-24T08:45:00;3.1;;;2.3;;
77802;SDS011;66993;48.256;16.422;2023-04-24T08:50:02;2.9;;;2.0;;
77802;SDS011;66993;48.256;16.422;2023-04-24T08:55:03;3.4;;;1.5;;
77802;SDS011;66993;48.256;16.422;2023-04-24T09:00:04;2.5;;;1.7;;
77802;SDS011;66993;48.256;16.422;2023-04-24T09:05:05;3.3;;;2.0;;
77802;SDS011;66993;48.256;16.422;2023-04-24T09:10:07;2.9;;;1.8;;
77802;SDS011;66993;48.256;16.422;2023-04-24T09:15:08;2.3;;;1.8;;
77802;SDS011;66993;48.256;16.422;2023-04-24T09:20:09;2.7;;;1.6;;
77802;SDS011;66993;48.256;16.422;2023-04-24T09:25:10;3.9;;;1.5;;
77802;SDS011;66993;48.256;16.422;2023-04-24T09:30:12;3.1;;;1.8;;
77802;SDS011;66993;48.256;16.422;2023-04-24T09:35:13;3.4;;;1.8;;
77802;SDS011;66993;48.256;16.422;2023-04-24T09:40:15;2.3;;;1.3;;
77802;SDS011;66993;48.256;16.422;2023-04-24T09:45:15;3.1;;;1.7;;
77802;SDS011;66993;48.256;16.422;2023-04-24T09:50:17;2.6;;;1.7;;
77802;SDS011;66993;48.256;16.422;2023-04-24T09:55:19;2.4;;;1.7;;
77802;SDS011;66993;48.256;16.422;2023-04-24T10:00:22;4.3;;;2.0;;
77802;SDS011;66993;48.256;16.422;2023-04-24T10:05:22;2.6;;;1.5;;
77802;SDS011;66993;48.256;16.422;2023-04-24T10:10:22;2.9;;;1.6;;
77802;SDS011;66993;48.256;16.422;2023-04-24T10:15:24;2.5;;;1.6;;
77802;SDS011;66993;48.256;16.422;2023-04-24T10:20:25;3.2;;;1.8;;
77802;SDS011;66993;48.256;16.422;2023-04-24T10:25:26;3.5;;;1.6;;
77802;SDS011;66993;48.256;16.422;2023-04-24T10:30:29;2.8;;;1.6;;
77802;SDS011;66993;48.256;16.422;2023-04-24T10:35:30;2.5;;;1.5;;
77802;SDS011;66993;48.256;16.422;2023-04-24T10:40:30;3.0;;;1.7;;
77802;SDS011;66993;48.256;16.422;2023-04-24T10:45:31;2.3;;;1.7;;
77802;SDS011;66993;48.256;16.422;2023-04-24T10:55:41;2.7;;;1.7;;
77802;SDS011;66993;48.256;16.422;2023-04-24T11:00:36;2.9;;;1.8;;
77802;SDS011;66993;48.256;16.422;2023-04-24T11:10:38;2.5;;;1.9;;
77802;SDS011;66993;48.256;16.422;2023-04-24T11:15:41;2.2;;;1.7;;
77802;SDS011;66993;48.256;16.422;2023-04-24T11:20:42;2.5;;;1.9;;
77802;SDS011;66993;48.256;16.422;2023-04-24T11:25:41;3.1;;;1.6;;
77802;SDS011;66993;48.256;16.422;2023-04-24T11:30:42;2.2;;;1.7;;
77802;SDS011;66993;48.256;16.422;2023-04-24T11:35:44;4.1;;;2.4;;
77802;SDS011;66993;48.256;16.422;2023-04-24T11:40:45;3.0;;;2.0;;
77802;SDS011;66993;48.256;16.422;2023-04-24T11:45:47;3.2;;;1.8;;
77802;SDS011;66993;48.256;16.422;2023-04-24T11:50:48;2.9;;;1.5;;
77802;SDS011;66993;48.256;16.422;2023-04-24T11:55:49;2.5;;;1.5;;
77802;SDS011;66993;48.256;16.422;2023-04-24T12:05:51;3.3;;;1.8;;
77802;SDS011;66993;48.256;16.422;2023-04-24T12:10:52;3.8;;;2.0;;
77802;SDS011;66993;48.256;16.422;2023-04-24T12:15:54;4.1;;;2.3;;
77802;SDS011;66993;48.256;16.422;2023-04-24T12:20:55;3.7;;;2.1;;
77802;SDS011;66993;48.256;16.422;2023-04-24T12:25:59;5.1;;;2.6;;
77802;SDS011;66993;48.256;16.422;2023-04-24T12:30:57;3.7;;;2.0;;
77802;SDS011;66993;48.256;16.422;2023-04-24T12:35:59;3.6;;;2.0;;
77802;SDS011;66993;48.256;16.422;2023-04-24T12:41:02;3.4;;;1.9;;
77802;SDS011;66993;48.256;16.422;2023-04-24T12:46:01;4.6;;;2.1;;
77802;SDS011;66993;48.256;16.422;2023-04-24T12:51:03;5.1;;;2.4;;
77802;SDS011;66993;48.256;16.422;2023-04-24T12:56:04;3.0;;;2.0;;
77802;SDS011;66993;48.256;16.422;2023-04-24T13:01:05;4.4;;;2.1;;
77802;SDS011;66993;48.256;16.422;2023-04-24T13:06:06;4.2;;;1.6;;
77802;SDS011;66993;48.256;16.422;2023-04-24T13:11:08;4.2;;;2.1;;
77802;SDS011;66993;48.256;16.422;2023-04-24T13:16:09;6.8;;;2.4;;
77802;SDS011;66993;48.256;16.422;2023-04-24T13:21:10;3.8;;;2.1;;
77802;SDS011;66993;48.256;16.422;2023-04-24T13:26:11;3.9;;;2.3;;
77802;SDS011;66993;48.256;16.422;2023-04-24T13:31:13;3.0;;;1.8;;
77802;SDS011;66993;48.256;16.422;2023-04-24T13:36:14;2.9;;;2.1;;
77802;SDS011;66993;48.256;16.422;2023-04-24T13:41:15;5.2;;;2.3;;
77802;SDS011;66993;48.256;16.422;2023-04-24T13:46:17;4.5;;;2.5;;
77802;SDS011;66993;48.256;16.422;2023-04-24T13:51:18;4.2;;;2.0;;
77802;SDS011;66993;48.256;16.422;2023-04-24T13:56:19;4.6;;;2.3;;
77802;SDS011;66993;48.256;16.422;2023-04-24T14:01:21;4.4;;;2.5;;
77802;SDS011;66993;48.256;16.422;2023-04-24T14:06:22;8.0;;;2.8;;
77802;SDS011;66993;48.256;16.422;2023-04-24T14:11:23;5.5;;;3.0;;
77802;SDS011;66993;48.256;16.422;2023-04-24T14:16:24;7.9;;;4.1;;
77802;SDS011;66993;48.256;16.422;2023-04-24T14:21:26;8.4;;;4.6;;
77802;SDS011;66993;48.256;16.422;2023-04-24T14:26:27;9.0;;;5.0;;
77802;SDS011;66993;48.256;16.422;2023-04-24T14:31:29;11.8;;;5.7;;
77802;SDS011;66993;48.256;16.422;2023-04-24T14:36:30;5.1;;;4.0;;
77802;SDS011;66993;48.256;16.422;2023-04-24T14:41:31;6.0;;;3.2;;
77802;SDS011;66993;48.256;16.422;2023-04-24T14:46:32;5.7;;;3.6;;
77802;SDS011;66993;48.256;16.422;2023-04-24T14:51:33;5.0;;;3.0;;
77802;SDS011;66993;48.256;16.422;2023-04-24T14:56:35;5.6;;;3.5;;
77802;SDS011;66993;48.256;16.422;2023-04-24T15:01:36;5.2;;;3.6;;
77802;SDS011;66993;48.256;16.422;2023-04-24T15:06:37;5.7;;;3.4;;
77802;SDS011;66993;48.256;16.422;2023-04-24T15:11:38;5.0;;;2.9;;
77802;SDS011;66993;48.256;16.422;2023-04-24T15:16:40;4.8;;;3.3;;
77802;SDS011;66993;48.256;16.422;2023-04-24T15:21:41;4.2;;;3.0;;
77802;SDS011;66993;48.256;16.422;2023-04-24T15:26:43;3.8;;;2.9;;
77802;SDS011;66993;48.256;16.422;2023-04-24T15:31:43;5.1;;;2.9;;
77802;SDS011;66993;48.256;16.422;2023-04-24T15:36:45;5.2;;;2.9;;
77802;SDS011;66993;48.256;16.422;2023-04-24T15:41:46;5.2;;;2.9;;
77802;SDS011;66993;48.256;16.422;2023-04-24T15:46:47;3.5;;;2.4;;
77802;SDS011;66993;48.256;16.422;2023-04-24T15:51:48;3.5;;;2.1;;
77802;SDS011;66993;48.256;16.422;2023-04-24T15:56:50;3.2;;;1.9;;
77802;SDS011;66993;48.256;16.422;2023-04-24T16:01:51;3.0;;;1.6;;
77802;SDS011;66993;48.256;16.422;2023-04-24T16:06:52;2.0;;;1.3;;
77802;SDS011;66993;48.256;16.422;2023-04-24T16:11:54;2.3;;;1.6;;
77802;SDS011;66993;48.256;16.422;2023-04-24T16:16:55;2.7;;;1.7;;
77802;SDS011;66993;48.256;16.422;2023-04-24T16:21:56;3.1;;;1.7;;
77802;SDS011;66993;48.256;16.422;2023-04-24T16:26:57;3.5;;;1.5;;
77802;SDS011;66993;48.256;16.422;2023-04-24T16:31:59;2.0;;;1.4;;
77802;SDS011;66993;48.256;16.422;2023-04-24T16:37:00;2.9;;;1.8;;
77802;SDS011;66993;48.256;16.422;2023-04-24T16:42:01;2.2;;;1.8;;
77802;SDS011;66993;48.256;16.422;2023-04-24T16:47:03;3.5;;;2.0;;
77802;SDS011;66993;48.256;16.422;2023-04-24T16:52:04;3.4;;;2.0;;
77802;SDS011;66993;48.256;16.422;2023-04-24T16:57:05;3.8;;;1.7;;
77802;SDS011;66993;48.256;16.422;2023-04-24T17:02:07;4.0;;;2.2;;
77802;SDS011;66993;48.256;16.422;2023-04-24T17:07:08;3.9;;;2.3;;
77802;SDS011;66993;48.256;16.422;2023-04-24T17:12:09;3.6;;;2.2;;
77802;SDS011;66993;48.256;16.422;2023-04-24T17:17:11;4.2;;;2.3;;
77802;SDS011;66993;48.256;16.422;2023-04-24T17:22:12;5.1;;;2.9;;
77802;SDS011;66993;48.256;16.422;2023-04-24T17:27:13;3.5;;;2.4;;
77802;SDS011;66993;48.256;16.422;2023-04-24T17:32:14;5.1;;;2.8;;
77802;SDS011;66993;48.256;16.422;2023-04-24T17:37:16;6.0;;;2.8;;
77802;SDS011;66993;48.256;16.422;2023-04-24T17:42:17;5.0;;;3.0;;
77802;SDS011;66993;48.256;16.422;2023-04-24T17:47:18;7.1;;;3.2;;
77802;SDS011;66993;48.256;16.422;2023-04-24T17:52:19;5.3;;;3.3;;
77802;SDS011;66993;48.256;16.422;2023-04-24T17:57:21;5.7;;;3.2;;
77802;SDS011;66993;48.256;16.422;2023-04-24T18:02:22;4.0;;;2.8;;
77802;SDS011;66993;48.256;16.422;2023-04-24T18:07:29;5.3;;;2.9;;
77802;SDS011;66993;48.256;16.422;2023-04-24T18:12:25;5.3;;;3.5;;
77802;SDS011;66993;48.256;16.422;2023-04-24T18:17:26;4.8;;;3.4;;
77802;SDS011;66993;48.256;16.422;2023-04-24T18:22:27;7.2;;;3.6;;
77802;SDS011;66993;48.256;16.422;2023-04-24T18:27:29;5.4;;;3.2;;
77802;SDS011;66993;48.256;16.422;2023-04-24T18:32:30;4.5;;;3.0;;
77802;SDS011;66993;48.256;16.422;2023-04-24T18:37:31;4.7;;;3.0;;
77802;SDS011;66993;48.256;16.422;2023-04-24T18:42:33;4.8;;;3.0;;
77802;SDS011;66993;48.256;16.422;2023-04-24T18:47:34;4.5;;;3.0;;
77802;SDS011;66993;48.256;16.422;2023-04-24T18:52:35;3.9;;;2.7;;
77802;SDS011;66993;48.256;16.422;2023-04-24T18:57:36;4.7;;;2.6;;
77802;SDS011;66993;48.256;16.422;2023-04-24T19:02:39;4.7;;;2.8;;
77802;SDS011;66993;48.256;16.422;2023-04-24T19:07:39;4.7;;;2.8;;
77802;SDS011;66993;48.256;16.422;2023-04-24T19:12:41;3.5;;;2.5;;
77802;SDS011;66993;48.256;16.422;2023-04-24T19:17:42;3.8;;;2.3;;
77802;SDS011;66993;48.256;16.422;2023-04-24T19:22:43;4.1;;;2.4;;
77802;SDS011;66993;48.256;16.422;2023-04-24T19:27:44;3.1;;;2.2;;
77802;SDS011;66993;48.256;16.422;2023-04-24T19:32:46;3.0;;;2.5;;
77802;SDS011;66993;48.256;16.422;2023-04-24T19:37:47;4.1;;;2.8;;
77802;SDS011;66993;48.256;16.422;2023-04-24T19:42:48;4.0;;;2.3;;
77802;SDS011;66993;48.256;16.422;2023-04-24T19:47:50;3.2;;;2.0;;
77802;SDS011;66993;48.256;16.422;2023-04-24T19:52:51;4.0;;;2.3;;
77802;SDS011;66993;48.256;16.422;2023-04-24T19:57:52;5.0;;;3.3;;
77802;SDS011;66993;48.256;16.422;2023-04-24T20:02:54;6.4;;;2.9;;
77802;SDS011;66993;48.256;16.422;2023-04-24T20:07:55;3.3;;;2.7;;
77802;SDS011;66993;48.256;16.422;2023-04-24T20:12:56;4.0;;;2.5;;
77802;SDS011;66993;48.256;16.422;2023-04-24T20:17:57;4.9;;;2.6;;
77802;SDS011;66993;48.256;16.422;2023-04-24T20:22:58;3.8;;;2.8;;
77802;SDS011;66993;48.256;16.422;2023-04-24T20:28:00;4.0;;;3.0;;
77802;SDS011;66993;48.256;16.422;2023-04-24T20:33:01;4.5;;;2.8;;
77802;SDS011;66993;48.256;16.422;2023-04-24T20:38:03;3.9;;;2.8;;
77802;SDS011;66993;48.256;16.422;2023-04-24T20:43:04;4.4;;;2.9;;
77802;SDS011;66993;48.256;16.422;2023-04-24T20:48:05;4.2;;;3.0;;
77802;SDS011;66993;48.256;16.422;2023-04-24T20:53:06;4.7;;;3.1;;
77802;SDS011;66993;48.256;16.422;2023-04-24T20:58:07;4.4;;;2.6;;
77802;SDS011;66993;48.256;16.422;2023-04-24T21:03:09;3.7;;;2.4;;
77802;SDS011;66993;48.256;16.422;2023-04-24T21:08:10;4.4;;;2.5;;
77802;SDS011;66993;48.256;16.422;2023-04-24T21:13:11;5.5;;;2.7;;
77802;SDS011;66993;48.256;16.422;2023-04-24T21:18:13;3.9;;;2.6;;
77802;SDS011;66993;48.256;16.422;2023-04-24T21:23:14;3.1;;;2.3;;
77802;SDS011;66993;48.256;16.422;2023-04-24T21:28:15;4.4;;;2.5;;
77802;SDS011;66993;48.256;16.422;2023-04-24T21:33:17;3.9;;;2.4;;
77802;SDS011;66993;48.256;16.422;2023-04-24T21:38:18;4.5;;;2.6;;
77802;SDS011;66993;48.256;16.422;2023-04-24T21:43:19;4.0;;;2.7;;
77802;SDS011;66993;48.256;16.422;2023-04-24T21:48:20;4.0;;;2.4;;
77802;SDS011;66993;48.256;16.422;2023-04-24T21:53:22;2.9;;;1.9;;
77802;SDS011;66993;48.256;16.422;2023-04-24T21:58:23;4.0;;;2.2;;
77802;SDS011;66993;48.256;16.422;2023-04-24T22:03:24;3.1;;;2.6;;
77802;SDS011;66993;48.256;16.422;2023-04-24T22:08:26;3.2;;;2.3;;
77802;SDS011;66993;48.256;16.422;2023-04-24T22:13:27;4.4;;;2.4;;
77802;SDS011;66993;48.256;16.422;2023-04-24T22:18:28;2.9;;;2.1;;
77802;SDS011;66993;48.256;16.422;2023-04-24T22:23:29;2.9;;;2.3;;
77802;SDS011;66993;48.256;16.422;2023-04-24T22:28:31;3.1;;;2.5;;
77802;SDS011;66993;48.256;16.422;2023-04-24T22:33:32;4.3;;;2.5;;
77802;SDS011;66993;48.256;16.422;2023-04-24T22:38:33;2.8;;;2.0;;
77802;SDS011;66993;48.256;16.422;2023-04-24T22:43:35;3.6;;;1.9;;
77802;SDS011;66993;48.256;16.422;2023-04-24T22:48:36;2.9;;;2.0;;
77802;SDS011;66993;48.256;16.422;2023-04-24T22:53:37;4.3;;;2.9;;
77802;SDS011;66993;48.256;16.422;2023-04-24T22:58:39;3.0;;;2.3;;
77802;SDS011;66993;48.256;16.422;2023-04-24T23:03:40;3.2;;;2.5;;
77802;SDS011;66993;48.256;16.422;2023-04-24T23:08:44;2.9;;;2.0;;
77802;SDS011;66993;48.256;16.422;2023-04-24T23:13:42;2.8;;;2.0;;
77802;SDS011;66993;48.256;16.422;2023-04-24T23:18:44;4.5;;;2.4;;
77802;SDS011;66993;48.256;16.422;2023-04-24T23:23:45;5.2;;;2.0;;
77802;SDS011;66993;48.256;16.422;2023-04-24T23:28:46;3.0;;;1.8;;
77802;SDS011;66993;48.256;16.422;2023-04-24T23:33:48;3.3;;;2.0;;
77802;SDS011;66993;48.256;16.422;2023-04-24T23:38:49;3.0;;;1.9;;
77802;SDS011;66993;48.256;16.422;2023-04-24T23:43:50;3.7;;;2.3;;
77802;SDS011;66993;48.256;16.422;2023-04-24T23:48:51;3.5;;;2.3;;
77802;SDS011;66993;48.256;16.422;2023-04-24T23:53:53;3.8;;;2.1;;
77802;SDS011;66993;48.256;16.422;2023-04-24T23:58:54;2.7;;;2.0;;
